createdAt,value
2019-05-11T00:02:18.289Z,67.30
2019-05-11T00:05:00.112Z,61.00
2019-05-11T00:07:34.092Z,51.33
2019-05-11T00:10:07.883Z,57.23
2019-05-11T00:12:39.159Z,64.80
2019-05-11T00:15:12.217Z,60.57
2019-05-11T00:17:42.745Z,49.67
2019-05-11T00:20:13.452Z,61.40
2019-05-11T00:22:47.597Z,59.83
2019-05-11T00:25:18.142Z,48.20
2019-05-11T00:27:48.587Z,51.20
2019-05-11T00:30:20.989Z,51.70
2019-05-11T00:32:51.608Z,52.33
2019-05-11T00:35:22.683Z,54.83
2019-05-11T00:37:53.436Z,45.10
2019-05-11T00:40:29.462Z,51.07
2019-05-11T00:43:04.295Z,49.73
2019-05-11T00:45:39.340Z,49.23
2019-05-11T00:48:09.704Z,49.57
2019-05-11T00:50:43.471Z,55.33
2019-05-11T00:53:16.268Z,47.50
2019-05-11T00:55:46.440Z,49.20
2019-05-11T00:58:17.438Z,49.93
2019-05-11T01:00:49.328Z,41.43
2019-05-11T01:03:19.590Z,47.77
2019-05-11T01:05:51.885Z,40.97
2019-05-11T01:08:27.428Z,44.97
2019-05-11T01:11:03.295Z,49.40
2019-05-11T01:13:33.757Z,58.60
2019-05-11T01:16:04.958Z,56.33
2019-05-11T01:18:35.558Z,47.17
2019-05-11T01:21:06.004Z,46.33
2019-05-11T01:23:36.531Z,62.43
2019-05-11T01:26:06.960Z,62.07
2019-05-11T01:28:38.348Z,47.47
2019-05-11T01:31:08.802Z,54.63
2019-05-11T01:33:39.098Z,62.03
2019-05-11T01:36:14.789Z,57.70
2019-05-11T01:38:45.604Z,64.00
2019-05-11T01:41:16.268Z,72.20
2019-05-11T01:43:47.168Z,65.83
2019-05-11T01:46:17.447Z,77.50
2019-05-11T01:48:53.112Z,69.73
2019-05-11T01:51:23.968Z,98.47
2019-05-11T01:53:57.921Z,86.93
2019-05-11T01:56:27.976Z,77.97
2019-05-11T01:58:58.365Z,75.53
2019-05-11T02:01:29.301Z,59.43
2019-05-11T02:03:59.976Z,66.07
2019-05-11T02:06:30.409Z,70.57
2019-05-11T02:09:06.882Z,75.80
2019-05-11T02:11:42.316Z,68.47
2019-05-11T02:14:12.641Z,76.97
2019-05-11T02:16:43.436Z,97.17
2019-05-11T02:19:14.045Z,87.93
2019-05-11T02:21:44.413Z,94.87
2019-05-11T02:24:17.189Z,80.13
2019-05-11T02:26:47.809Z,73.37
2019-05-11T02:29:18.314Z,85.43
2019-05-11T02:31:48.503Z,73.37
2019-05-11T02:34:18.959Z,80.00
2019-05-11T02:36:49.221Z,88.80
2019-05-11T02:39:19.821Z,107.10
2019-05-11T02:41:50.476Z,88.50
2019-05-11T02:44:21.460Z,93.93
2019-05-11T02:46:51.972Z,117.13
2019-05-11T02:49:22.462Z,88.57
2019-05-11T02:51:53.238Z,86.90
2019-05-11T02:54:24.444Z,101.70
2019-05-11T02:56:56.203Z,98.97
2019-05-11T02:59:30.939Z,93.90
2019-05-11T03:02:01.226Z,97.00
2019-05-11T03:04:31.397Z,89.37
2019-05-11T03:07:04.538Z,91.77
2019-05-11T03:09:34.300Z,100.60
2019-05-11T03:12:04.473Z,86.87
2019-05-11T03:14:35.045Z,86.27
2019-05-11T03:17:18.538Z,91.47
2019-05-11T03:19:48.624Z,99.53
2019-05-11T03:22:19.158Z,99.60
2019-05-11T03:24:49.387Z,108.57
2019-05-11T03:27:19.787Z,90.67
2019-05-11T03:29:49.941Z,113.77
2019-05-11T03:32:20.911Z,103.10
2019-05-11T03:34:51.899Z,106.57
2019-05-11T03:37:22.173Z,100.17
2019-05-11T03:39:52.697Z,94.87
2019-05-11T03:42:22.955Z,108.00
2019-05-11T03:44:53.065Z,93.53
2019-05-11T03:47:24.122Z,100.57
2019-05-11T03:49:54.516Z,108.30
2019-05-11T03:52:24.664Z,106.80
2019-05-11T03:54:55.153Z,118.13
2019-05-11T03:57:25.306Z,102.60
2019-05-11T03:59:56.635Z,112.00
2019-05-11T04:02:29.826Z,107.60
2019-05-11T04:05:00.206Z,95.47
2019-05-11T04:07:30.534Z,113.07
2019-05-11T04:10:01.047Z,101.63
2019-05-11T04:12:35.193Z,96.17
2019-05-11T04:15:03.048Z,97.63
2019-05-11T04:17:33.436Z,110.43
2019-05-11T04:20:04.523Z,90.17
2019-05-11T04:22:34.818Z,85.50
2019-05-11T04:25:06.078Z,91.83
2019-05-11T04:27:36.999Z,86.77
2019-05-11T04:30:07.531Z,97.00
2019-05-11T04:32:37.786Z,87.23
2019-05-11T04:35:08.512Z,100.53
2019-05-11T04:37:38.788Z,89.63
2019-05-11T04:40:09.519Z,80.73
2019-05-11T04:42:54.508Z,85.93
2019-05-11T04:45:12.370Z,84.43
2019-05-11T04:47:43.795Z,81.77
2019-05-11T04:50:15.768Z,85.37
2019-05-11T04:52:46.717Z,82.47
2019-05-11T04:55:17.194Z,83.10
2019-05-11T04:57:47.503Z,74.97
2019-05-11T05:00:20.700Z,73.03
2019-05-11T05:02:54.600Z,74.07
2019-05-11T05:05:24.855Z,76.60
2019-05-11T05:08:08.630Z,75.77
2019-05-11T05:10:28.207Z,65.60
2019-05-11T05:13:10.270Z,61.70
2019-05-11T05:15:33.900Z,62.27
2019-05-11T05:18:04.640Z,59.00
2019-05-11T05:20:34.891Z,60.97
2019-05-11T05:23:05.296Z,55.23
2019-05-11T05:25:36.158Z,53.53
2019-05-11T05:28:06.440Z,52.23
2019-05-11T05:30:36.757Z,52.63
2019-05-11T05:33:07.263Z,49.30
2019-05-11T05:35:40.608Z,52.13
2019-05-11T05:38:11.394Z,48.90
2019-05-11T05:40:41.585Z,44.93
2019-05-11T05:43:25.639Z,42.27
2019-05-11T05:45:45.442Z,44.30
2019-05-11T05:48:16.126Z,50.73
2019-05-11T05:50:46.647Z,43.37
2019-05-11T05:53:20.263Z,40.43
2019-05-11T05:55:50.772Z,38.13
2019-05-11T05:58:21.129Z,36.00
2019-05-11T06:00:51.856Z,36.80
2019-05-11T06:03:22.235Z,32.67
2019-05-11T06:05:52.565Z,31.70
2019-05-11T06:08:22.831Z,26.87
2019-05-11T06:10:57.687Z,28.40
2019-05-11T06:13:43.965Z,30.60
2019-05-11T06:16:00.064Z,24.57
2019-05-11T06:18:31.366Z,26.43
2019-05-11T06:21:01.606Z,30.13
2019-05-11T06:23:31.953Z,26.33
2019-05-11T06:26:03.444Z,26.00
2019-05-11T06:28:35.870Z,27.13
2019-05-11T06:31:09.488Z,22.27
2019-05-11T06:33:40.874Z,23.70
2019-05-11T06:36:11.222Z,19.90
2019-05-11T06:38:41.491Z,21.37
2019-05-11T06:41:12.248Z,20.67
2019-05-11T06:43:42.381Z,19.53
2019-05-11T06:46:14.542Z,19.37
2019-05-11T06:48:45.322Z,24.97
2019-05-11T06:51:22.578Z,17.37
2019-05-11T06:54:01.309Z,22.37
2019-05-11T06:56:33.202Z,17.80
2019-05-11T06:59:04.066Z,22.67
2019-05-11T07:01:34.556Z,22.40
2019-05-11T07:04:30.229Z,21.67
2019-05-11T07:06:52.698Z,18.87
2019-05-11T07:09:58.616Z,21.93
2019-05-11T07:12:52.821Z,19.37
2019-05-11T07:15:29.445Z,18.70
2019-05-11T07:18:00.247Z,24.03
2019-05-11T07:20:30.582Z,22.00
2019-05-11T07:23:03.532Z,18.37
2019-05-11T07:26:23.222Z,19.17
2019-05-11T07:28:56.238Z,21.13
2019-05-11T07:31:52.956Z,20.83
2019-05-11T07:34:24.267Z,21.67
2019-05-11T07:36:59.663Z,20.23
2019-05-11T07:39:32.415Z,21.40
2019-05-11T07:42:07.752Z,23.37
2019-05-11T07:44:42.886Z,17.67
2019-05-11T07:47:18.683Z,18.40
2019-05-11T07:50:28.157Z,18.17
2019-05-11T07:52:59.010Z,18.67
2019-05-11T07:55:32.416Z,21.17
2019-05-11T07:58:20.104Z,20.27
2019-05-11T08:00:52.806Z,19.23
2019-05-11T08:03:55.399Z,19.90
2019-05-11T08:06:47.952Z,18.33
2019-05-11T08:09:23.598Z,22.13
2019-05-11T08:11:55.539Z,22.43
2019-05-11T08:14:28.572Z,21.47
2019-05-11T08:17:01.013Z,19.37
2019-05-11T08:22:22.998Z,17.97
2019-05-11T08:24:54.477Z,19.43
2019-05-11T08:27:25.928Z,18.03
2019-05-11T08:29:57.969Z,22.10
2019-05-11T08:32:28.815Z,20.77
2019-05-11T08:34:59.475Z,18.27
2019-05-11T08:37:59.177Z,19.10
2019-05-11T08:40:29.880Z,17.47
2019-05-11T08:43:00.751Z,18.57
2019-05-11T08:45:39.043Z,20.90
2019-05-11T08:48:18.751Z,21.73
2019-05-11T08:50:51.350Z,20.60
2019-05-11T08:53:23.071Z,20.57
2019-05-11T08:56:03.365Z,22.00
2019-05-11T08:58:38.017Z,21.27
2019-05-11T09:01:09.394Z,23.13
2019-05-11T09:03:39.940Z,17.00
2019-05-11T09:06:10.654Z,17.20
2019-05-11T09:08:41.921Z,15.77
2019-05-11T09:11:31.160Z,15.80
2019-05-11T09:13:57.919Z,16.87
2019-05-11T09:16:29.234Z,18.47
2019-05-11T09:19:05.350Z,18.83
2019-05-11T09:21:38.290Z,16.30
2019-05-11T09:24:10.436Z,17.87
2019-05-11T09:26:41.376Z,14.53
2019-05-11T09:29:12.289Z,14.27
2019-05-11T09:31:43.389Z,18.47
2019-05-11T09:34:14.198Z,18.97
2019-05-11T09:36:44.647Z,18.03
2019-05-11T09:39:18.204Z,14.00
2019-05-11T09:41:49.035Z,15.87
2019-05-11T09:44:20.667Z,20.47
2019-05-11T09:46:53.356Z,16.17
2019-05-11T09:49:43.405Z,13.57
2019-05-11T09:51:59.464Z,10.53
2019-05-11T09:54:33.755Z,17.57
2019-05-11T09:57:04.610Z,14.53
2019-05-11T09:59:38.319Z,14.10
2019-05-11T10:02:08.489Z,18.87
2019-05-11T10:04:43.971Z,17.43
2019-05-11T10:07:18.023Z,15.97
2019-05-11T10:09:50.413Z,13.87
2019-05-11T10:12:24.549Z,16.03
2019-05-11T10:15:23.133Z,15.00
2019-05-11T10:17:54.348Z,15.70
2019-05-11T10:20:32.304Z,14.53
2019-05-11T10:23:18.700Z,13.13
2019-05-11T10:25:48.227Z,12.20
2019-05-11T10:28:19.696Z,14.80
2019-05-11T10:30:53.914Z,12.67
2019-05-11T10:33:28.242Z,10.37
2019-05-11T10:36:04.022Z,10.00
2019-05-11T10:38:34.802Z,11.00
2019-05-11T10:41:08.637Z,18.80
2019-05-11T10:43:38.359Z,9.97
2019-05-11T10:46:19.473Z,10.47
2019-05-11T10:48:48.291Z,9.73
2019-05-11T10:51:22.281Z,9.53
2019-05-11T10:53:54.696Z,8.33
2019-05-11T10:56:28.395Z,12.10
2019-05-11T10:58:59.651Z,10.03
2019-05-11T11:01:33.721Z,11.37
2019-05-11T11:04:10.717Z,9.87
2019-05-11T11:06:41.510Z,14.17
2019-05-11T11:09:12.566Z,10.73
2019-05-11T11:11:49.283Z,9.27
2019-05-11T11:14:29.501Z,10.60
2019-05-11T11:17:08.515Z,10.27
2019-05-11T11:19:38.880Z,9.77
2019-05-11T11:22:35.379Z,8.90
2019-05-11T11:24:50.864Z,7.60
2019-05-11T11:27:25.569Z,7.07
2019-05-11T11:29:58.286Z,8.10
2019-05-11T11:32:34.549Z,7.77
2019-05-11T11:35:08.477Z,7.70
2019-05-11T11:37:39.471Z,9.10
2019-05-11T11:40:14.293Z,8.33
2019-05-11T11:42:50.052Z,9.30
2019-05-11T11:45:20.864Z,9.20
2019-05-11T11:47:53.480Z,7.43
2019-05-11T11:50:28.184Z,6.77
2019-05-11T11:53:18.780Z,8.53
2019-05-11T11:55:54.277Z,7.63
2019-05-11T11:58:27.686Z,6.77
2019-05-11T12:01:02.122Z,10.03
2019-05-11T12:03:32.756Z,6.80
2019-05-11T12:06:08.517Z,10.60
2019-05-11T12:08:41.763Z,6.57
2019-05-11T12:11:22.089Z,6.27
2019-05-11T12:13:53.016Z,6.57
2019-05-11T12:16:24.108Z,7.33
2019-05-11T12:18:57.676Z,8.90
2019-05-11T12:21:28.294Z,8.83
2019-05-11T12:24:10.341Z,13.37
2019-05-11T12:26:41.770Z,8.07
2019-05-11T12:29:12.508Z,9.83
2019-05-11T12:31:43.723Z,9.40
2019-05-11T12:34:18.063Z,8.67
2019-05-11T12:36:50.237Z,8.57
2019-05-11T12:39:22.607Z,7.00
2019-05-11T12:41:59.149Z,12.87
2019-05-11T12:44:53.169Z,10.53
2019-05-11T12:47:50.279Z,8.17
2019-05-11T12:50:28.570Z,6.27
2019-05-11T12:53:05.377Z,9.50
2019-05-11T12:55:39.311Z,7.53
2019-05-11T12:58:23.223Z,10.13
2019-05-11T13:01:00.622Z,9.53
2019-05-11T13:03:38.577Z,7.37
2019-05-11T13:06:14.270Z,9.10
2019-05-11T13:08:53.893Z,7.30
2019-05-11T13:11:28.607Z,10.50
2019-05-11T13:14:04.107Z,10.20
2019-05-11T13:16:40.753Z,11.77
2019-05-11T13:19:14.903Z,9.00
2019-05-11T13:21:45.763Z,8.17
2019-05-11T13:24:19.634Z,10.33
2019-05-11T13:26:54.959Z,10.43
2019-05-11T13:29:25.654Z,11.03
2019-05-11T13:32:01.008Z,10.40
2019-05-11T13:34:41.098Z,10.20
2019-05-11T13:37:15.114Z,12.80
2019-05-11T13:40:02.482Z,11.37
2019-05-11T13:45:31.680Z,8.77
2019-05-11T13:48:10.618Z,9.73
2019-05-11T13:50:42.500Z,7.53
2019-05-11T13:53:15.450Z,6.80
2019-05-11T13:55:49.346Z,10.17
2019-05-11T13:58:23.491Z,9.97
2019-05-11T14:00:58.489Z,11.43
2019-05-11T14:03:45.063Z,15.20
2019-05-11T14:06:18.480Z,7.67
2019-05-11T14:08:49.881Z,10.67
2019-05-11T14:11:47.357Z,13.93
2019-05-11T14:14:18.346Z,14.47
2019-05-11T14:16:55.648Z,9.37
2019-05-11T14:19:29.276Z,7.73
2019-05-11T14:22:00.622Z,7.23
2019-05-11T14:24:37.796Z,9.83
2019-05-11T14:27:08.599Z,8.30
2019-05-11T14:29:41.768Z,8.17
2019-05-11T14:32:28.452Z,8.27
2019-05-11T14:35:27.810Z,12.27
2019-05-11T14:38:08.549Z,11.00
2019-05-11T14:41:01.431Z,9.63
2019-05-11T14:43:54.712Z,9.53
2019-05-11T14:46:33.267Z,10.97
2019-05-11T14:49:10.380Z,7.20
2019-05-11T14:51:48.579Z,9.23
2019-05-11T14:54:28.903Z,7.73
2019-05-11T15:00:03.896Z,7.77
2019-05-11T15:03:18.451Z,7.53
2019-05-11T15:05:28.296Z,8.37
2019-05-11T15:07:58.923Z,7.70
2019-05-11T15:10:40.393Z,7.87
2019-05-11T15:13:15.697Z,5.53
2019-05-11T15:15:48.667Z,5.50
2019-05-11T15:18:36.142Z,7.10
2019-05-11T15:21:01.601Z,4.27
2019-05-11T15:23:37.626Z,4.00
2019-05-11T15:26:20.260Z,5.03
2019-05-11T15:28:58.507Z,6.23
2019-05-11T15:31:33.007Z,6.63
2019-05-11T15:34:04.820Z,5.20
2019-05-11T15:36:38.700Z,3.90
2019-05-11T15:39:24.190Z,4.23
2019-05-11T15:42:07.355Z,7.37
2019-05-11T15:44:29.176Z,5.07
2019-05-11T15:47:00.358Z,5.53
2019-05-11T15:49:33.577Z,4.40
2019-05-11T15:52:04.965Z,5.70
2019-05-11T15:54:38.566Z,4.83
2019-05-11T15:57:10.834Z,4.83
2019-05-11T15:59:47.990Z,5.47
2019-05-11T16:02:18.301Z,7.33
2019-05-11T16:04:53.251Z,4.27
2019-05-11T16:07:24.393Z,5.47
2019-05-11T16:09:57.916Z,5.37
2019-05-11T16:12:32.139Z,4.00
2019-05-11T16:15:05.512Z,5.10
2019-05-11T16:17:40.398Z,3.07
2019-05-11T16:20:14.209Z,4.40
2019-05-11T16:22:44.852Z,4.30
2019-05-11T16:25:19.616Z,5.50
2019-05-11T16:27:51.301Z,4.73
2019-05-11T16:30:32.728Z,4.00
2019-05-11T16:33:13.255Z,5.60
2019-05-11T16:35:46.043Z,5.90
2019-05-11T16:38:20.052Z,5.40
2019-05-11T16:40:59.577Z,3.93
2019-05-11T16:43:39.993Z,4.07
2019-05-11T16:46:14.686Z,6.00
2019-05-11T16:48:57.752Z,2.97
2019-05-11T16:51:34.060Z,3.03
2019-05-11T16:54:09.057Z,4.90
2019-05-11T16:56:54.974Z,6.10
2019-05-11T16:59:33.403Z,3.47
2019-05-11T17:02:08.242Z,5.37
2019-05-11T17:04:58.082Z,4.07
2019-05-11T17:07:30.070Z,2.90
2019-05-11T17:10:12.897Z,7.87
2019-05-11T17:12:48.987Z,3.43
2019-05-11T17:15:28.839Z,6.57
2019-05-11T17:18:09.551Z,3.67
2019-05-11T17:20:47.519Z,3.93
2019-05-11T17:23:38.616Z,3.10
2019-05-11T17:26:12.480Z,4.70
2019-05-11T17:28:48.934Z,5.77
2019-05-11T17:31:20.078Z,5.47
2019-05-11T17:33:52.171Z,3.80
2019-05-11T17:36:28.342Z,3.43
2019-05-11T17:39:04.698Z,2.73
2019-05-11T17:41:47.926Z,5.53
2019-05-11T17:44:20.543Z,6.97
2019-05-11T17:47:01.675Z,2.93
2019-05-11T17:49:34.077Z,4.83
2019-05-11T17:52:08.390Z,3.57
2019-05-11T17:54:41.237Z,2.97
2019-05-11T17:57:19.122Z,5.83
2019-05-11T18:00:20.088Z,2.73
2019-05-11T18:03:08.358Z,3.07
2019-05-11T18:05:42.253Z,1.70
2019-05-11T18:08:13.610Z,4.10
2019-05-11T18:10:47.796Z,2.70
2019-05-11T18:13:18.342Z,4.20
2019-05-11T18:15:57.775Z,2.67
2019-05-11T18:18:24.712Z,3.47
2019-05-11T18:20:59.185Z,3.93
2019-05-11T18:23:32.174Z,3.70
2019-05-11T18:26:06.077Z,7.23
2019-05-11T18:28:37.799Z,6.17
2019-05-11T18:31:18.370Z,5.97
2019-05-11T18:33:52.273Z,2.77
2019-05-11T18:36:28.950Z,5.20
2019-05-11T18:39:02.732Z,6.70
2019-05-11T18:41:41.135Z,5.63
2019-05-11T18:44:11.701Z,5.57
2019-05-11T18:46:48.024Z,6.03
2019-05-11T18:49:21.349Z,8.27
2019-05-11T18:51:51.272Z,6.33
2019-05-11T18:54:22.364Z,4.40
2019-05-11T18:57:12.076Z,4.17
2019-05-11T18:59:48.261Z,4.50
2019-05-11T19:02:27.939Z,3.20
2019-05-11T19:04:58.154Z,2.50
2019-05-11T19:07:30.724Z,3.93
2019-05-11T19:10:02.879Z,4.53
2019-05-11T19:12:35.074Z,3.87
2019-05-11T19:15:10.946Z,2.77
2019-05-11T19:17:41.443Z,7.50
2019-05-11T19:20:22.553Z,5.30
2019-05-11T19:22:53.221Z,7.47
2019-05-11T19:25:25.588Z,7.07
2019-05-11T19:27:58.778Z,3.30
2019-05-11T19:30:28.808Z,6.70
2019-05-11T19:32:59.620Z,2.43
2019-05-11T19:35:34.963Z,3.67
2019-05-11T19:38:10.066Z,4.73
2019-05-11T19:40:41.612Z,5.53
2019-05-11T19:43:18.344Z,5.03
2019-05-11T19:45:52.878Z,3.60
2019-05-11T19:48:28.013Z,2.77
2019-05-11T19:51:08.055Z,5.20
2019-05-11T19:53:41.358Z,7.87
2019-05-11T19:56:12.474Z,7.27
2019-05-11T19:58:48.470Z,3.00
2019-05-11T20:01:28.333Z,5.43
2019-05-11T20:04:00.219Z,5.43
2019-05-11T20:06:30.921Z,4.30
2019-05-11T20:09:10.731Z,5.13
2019-05-11T20:11:43.095Z,2.97
2019-05-11T20:14:21.776Z,3.50
2019-05-11T20:16:56.130Z,5.43
2019-05-11T20:19:38.453Z,4.23
2019-05-11T20:22:15.608Z,7.43
2019-05-11T20:25:12.935Z,3.13
2019-05-11T20:27:52.017Z,3.07
2019-05-11T20:30:26.478Z,5.53
2019-05-11T20:32:58.510Z,3.83
2019-05-11T20:35:32.338Z,4.77
2019-05-11T20:38:18.905Z,6.53
2019-05-11T20:41:02.549Z,6.13
2019-05-11T20:43:36.652Z,3.30
2019-05-11T20:46:08.268Z,4.63
2019-05-11T20:48:39.548Z,5.70
2019-05-11T20:51:12.149Z,3.43
2019-05-11T20:53:46.318Z,3.67
2019-05-11T20:56:21.766Z,3.53
2019-05-11T20:58:59.221Z,4.10
2019-05-11T21:01:38.697Z,6.17
2019-05-11T21:04:16.046Z,6.77
2019-05-11T21:06:47.546Z,4.13
2019-05-11T21:09:29.008Z,5.23
2019-05-11T21:12:02.783Z,4.13
2019-05-11T21:14:41.878Z,4.00
2019-05-11T21:17:12.404Z,4.73
2019-05-11T21:19:51.943Z,4.17
2019-05-11T21:22:29.674Z,3.63
2019-05-11T21:25:00.871Z,3.37
2019-05-11T21:27:38.351Z,5.33
2019-05-11T21:30:18.279Z,4.23
2019-05-11T21:32:58.384Z,7.57
2019-05-11T21:35:35.684Z,3.50
2019-05-11T21:38:06.990Z,2.83
2019-05-11T21:40:38.543Z,5.07
2019-05-11T21:43:11.907Z,5.97
2019-05-11T21:45:47.877Z,5.50
2019-05-11T21:48:18.331Z,4.87
2019-05-11T21:50:50.591Z,5.43
2019-05-11T21:53:21.855Z,4.23
2019-05-11T21:55:55.665Z,4.97
2019-05-11T21:58:28.553Z,5.20
2019-05-11T22:01:02.214Z,7.30
2019-05-11T22:03:35.028Z,6.57
2019-05-11T22:06:08.724Z,3.80
2019-05-11T22:08:50.912Z,4.80
2019-05-11T22:11:22.939Z,8.90
2019-05-11T22:13:54.529Z,3.17
2019-05-11T22:16:30.333Z,5.60
2019-05-11T22:19:03.650Z,6.37
2019-05-11T22:21:33.997Z,5.33
2019-05-11T22:24:04.711Z,6.03
2019-05-11T22:26:48.543Z,4.67
2019-05-11T22:29:18.840Z,4.60
2019-05-11T22:31:58.132Z,5.30
2019-05-11T22:34:28.549Z,3.47
2019-05-11T22:36:59.567Z,6.37
2019-05-11T22:39:37.675Z,2.27
2019-05-11T22:42:07.979Z,4.87
2019-05-11T22:44:38.598Z,3.30
2019-05-11T22:47:09.900Z,5.80
2019-05-11T22:49:40.510Z,4.17
2019-05-11T22:52:36.227Z,1.87
2019-05-11T22:55:11.088Z,4.80
2019-05-11T22:57:40.972Z,4.13
2019-05-11T23:00:12.819Z,4.70
2019-05-11T23:02:50.810Z,4.70
2019-05-11T23:05:21.511Z,3.67
2019-05-11T23:08:00.725Z,5.30
2019-05-11T23:10:31.529Z,3.83
2019-05-11T23:13:02.093Z,5.00
2019-05-11T23:15:32.903Z,3.37
2019-05-11T23:18:08.578Z,3.67
2019-05-11T23:20:43.758Z,3.67
2019-05-11T23:23:14.387Z,3.20
2019-05-11T23:25:44.691Z,7.13
2019-05-11T23:28:18.479Z,7.63
2019-05-11T23:30:49.551Z,4.67
2019-05-11T23:33:19.745Z,6.13
2019-05-11T23:35:53.455Z,3.77
2019-05-11T23:38:23.639Z,4.97
2019-05-11T23:40:58.716Z,3.90
2019-05-11T23:43:55.581Z,5.07
2019-05-11T23:46:28.255Z,6.57
2019-05-11T23:49:01.902Z,3.60
2019-05-11T23:51:34.247Z,7.87
2019-05-11T23:54:04.513Z,5.17
2019-05-11T23:56:35.760Z,4.10
2019-05-11T23:59:08.095Z,2.80
